Home PIREPS Pireps

Flight SAB2284

  • Submitted By: Carl Hermans
  • Departure Airport: Oslo Airport, Gardermoen (ENGM)
  • Arrival Airport: Bruxelles National (EBBR)
  • Aircraft: B737-500 (OO-SAB)
  • Flight Time: 01.46
  • Date Submitted: 04/10/2016
  • Status: Accepted
Flight Details
Gross Revenue:
(120 load / € 0.00 per unit
€ 0.00
Fuel Cost:
(2875 fuel used @ 5.1 / unit)
€ 14,662.50

Additional Log Information:

View Log

Aircraft Used in flight is x737-800_v501 Brussels Airlines
14:40Flaps 3 Selected at 680ft and 0kts
14:40 Engine 1 Started
14:40 Engine 2 Started
14:40 Engine 3 Started
14:40 Engine 4 Started
14:40 Strobe Lights ON at 680 AGL
14:40 Navigation Lights ON at 680 AGL
14:40 Taxi Lights ON at 680 AGL
14:40 Beacon Lights ON at 680 AGL
14:40 Brakes are On
14:42 Brakes are Released
14:44 Brakes are On
14:44 Brakes are Released
14:45 Brakes are On
14:45 Brakes are Released
14:46 Brakes are On
14:46 Brakes are Released
14:46 Brakes are On
14:46 Brakes are Released
14:48 Brakes are On
14:48 Brakes are Released
14:48 Brakes are On
14:48 Taxi Lights OFF at 660 AGL
14:49 Brakes are Released
14:50 You Took off @ 164 Knots and Flaps at Position 3
Departure Weather
ENGM 041220Z 02004KT 330V060 9999 FEW035 10/00 Q1046 NOSIGrn
14:50 Landing Gear Up @ 192 Knots and 710 Feet
14:50Flaps 2 Selected at 1260ft and 223kts
14:50Flaps Retracted at 1330ft and 223kts
14:51 Below 10000 feet you are not allowed to go over 250 knots
14:52 Above FL100 you need to switch of the landing lights
16:18Flaps 1 Selected at 8860ft and 222kts
16:18Flaps 2 Selected at 8840ft and 222kts
16:18Flaps 3 Selected at 8740ft and 224kts
16:20Flaps 4 Selected at 6180ft and 185kts
16:20Flaps 5 Selected at 5890ft and 179kts
16:20Flaps 6 Selected at 5770ft and 175kts
16:21 Landing Gear Down @ 160 Knots and 4150 Feet
16:24Flaps 8 Selected at 1210ft and 160kts
16:26 You Landed @ 156 Knots and with -300 Vertical Speed
Arrival Weather
EBBR 041350Z 06006KT 9999 FEW014 BKN034 14/11 Q1032 NOSIGrn
16:26 Brakes are On
16:26 Brussels Bel-Track1.0.0.11

Route Map

Corporate About Us Our Team Vacancies Information Fleet Route Network Rules and Regulations Operations Flight Schedules Event Center Tours Partners IVAO Vatsim Acars dev FSCB

fb Users Online Belgium Marc Claus, Belgium ISMAIL SAIF , Belgium Martin Witters, Belgium Roger Wijns,
5 Pilot(s) and 204 Guest(s) Online
CMS by phpVMS - Design by Crazycreatives.com - Copyright © 2018 - Brussels Airlines Virtual